createdAt,value
2022-12-08T00:01:59.480Z,88.76
2022-12-08T00:04:27.457Z,88.56
2022-12-08T00:07:14.019Z,88.56
2022-12-08T00:09:42.073Z,88.53
2022-12-08T00:12:15.417Z,88.46
2022-12-08T00:14:47.056Z,88.67
2022-12-08T00:17:15.887Z,88.92
2022-12-08T00:19:44.136Z,88.91
2022-12-08T00:22:12.783Z,88.62
2022-12-08T00:24:41.330Z,88.74
2022-12-08T00:27:10.565Z,88.96
2022-12-08T00:29:38.871Z,89.28
2022-12-08T00:32:06.771Z,89.35
2022-12-08T00:34:34.560Z,89.56
2022-12-08T00:37:02.379Z,89.66
2022-12-08T00:39:30.246Z,89.44
2022-12-08T00:42:13.540Z,89.11
2022-12-08T00:44:42.833Z,89.00
2022-12-08T00:47:11.516Z,88.42
2022-12-08T00:49:39.478Z,88.31
2022-12-08T00:52:07.656Z,88.59
2022-12-08T00:54:35.407Z,88.14
2022-12-08T00:57:03.251Z,88.51
2022-12-08T00:59:30.948Z,88.79
2022-12-08T01:01:59.107Z,88.88
2022-12-08T01:04:26.880Z,88.60
2022-12-08T01:06:54.814Z,88.48
2022-12-08T01:09:22.590Z,88.09
2022-12-08T01:11:50.484Z,88.52
2022-12-08T01:14:18.369Z,88.46
2022-12-08T01:16:46.186Z,88.69
2022-12-08T01:19:14.921Z,88.53
2022-12-08T01:21:43.365Z,88.49
2022-12-08T01:24:15.467Z,88.60
2022-12-08T01:26:43.575Z,88.53
2022-12-08T01:29:11.502Z,88.51
2022-12-08T01:31:39.854Z,88.43
2022-12-08T01:34:08.592Z,88.53
2022-12-08T01:36:37.301Z,88.78
2022-12-08T01:39:07.139Z,88.73
2022-12-08T01:41:36.132Z,88.47
2022-12-08T01:44:08.344Z,88.18
2022-12-08T01:46:38.071Z,87.85
2022-12-08T01:49:12.622Z,87.72
2022-12-08T01:51:44.251Z,87.38
2022-12-08T01:54:12.582Z,87.05
2022-12-08T01:56:50.639Z,87.15
2022-12-08T01:59:19.355Z,87.05
2022-12-08T02:01:47.163Z,86.98
2022-12-08T02:04:14.916Z,87.29
2022-12-08T02:06:44.695Z,86.89
2022-12-08T02:09:12.911Z,86.66
2022-12-08T02:11:40.679Z,86.71
2022-12-08T02:14:11.605Z,86.86
2022-12-08T02:16:49.349Z,86.61
2022-12-08T02:19:32.577Z,86.91
2022-12-08T02:22:00.351Z,87.13
2022-12-08T02:24:28.152Z,87.22
2022-12-08T02:27:31.318Z,87.34
2022-12-08T02:29:59.133Z,87.22
2022-12-08T02:33:05.607Z,87.52
2022-12-08T02:35:42.159Z,88.02
2022-12-08T02:38:25.269Z,88.09
2022-12-08T02:41:12.212Z,87.80
2022-12-08T02:43:45.369Z,87.92
2022-12-08T02:46:19.582Z,87.94
2022-12-08T02:48:47.947Z,88.16
2022-12-08T02:51:15.637Z,88.25
2022-12-08T02:53:43.863Z,88.18
2022-12-08T02:56:11.526Z,87.92
2022-12-08T02:58:52.736Z,87.72
2022-12-08T03:01:32.807Z,87.50
2022-12-08T03:04:08.772Z,87.38
2022-12-08T03:06:48.943Z,87.57
2022-12-08T03:09:19.838Z,87.80
2022-12-08T03:11:52.221Z,87.99
2022-12-08T03:14:21.479Z,87.97
2022-12-08T03:16:51.179Z,87.90
2022-12-08T03:19:21.367Z,87.74
2022-12-08T03:21:51.854Z,87.86
2022-12-08T03:24:22.181Z,88.16
2022-12-08T03:26:58.649Z,87.88
2022-12-08T03:29:26.432Z,87.42
2022-12-08T03:31:56.241Z,87.86
2022-12-08T03:34:26.218Z,88.31
2022-12-08T03:36:53.966Z,88.13
2022-12-08T03:39:21.703Z,87.91
2022-12-08T03:41:49.507Z,87.74
2022-12-08T03:44:17.159Z,87.48
2022-12-08T03:46:45.853Z,87.33
2022-12-08T03:49:13.596Z,87.50
2022-12-08T03:51:41.311Z,87.46
2022-12-08T03:54:09.001Z,87.73
2022-12-08T03:56:37.711Z,87.79
2022-12-08T03:59:06.556Z,87.94
2022-12-08T04:01:34.350Z,88.07
2022-12-08T04:04:02.564Z,88.02
2022-12-08T04:06:30.349Z,87.70
2022-12-08T04:08:58.075Z,87.67
2022-12-08T04:11:25.823Z,87.72
2022-12-08T04:13:53.579Z,87.92
2022-12-08T04:16:24.071Z,88.17
2022-12-08T04:18:52.899Z,88.20
2022-12-08T04:21:20.761Z,88.33
2022-12-08T04:23:49.225Z,88.45
2022-12-08T04:26:17.488Z,88.25
2022-12-08T04:28:45.285Z,88.30
2022-12-08T04:31:13.013Z,88.50
2022-12-08T04:33:40.844Z,88.60
2022-12-08T04:36:09.313Z,88.63
2022-12-08T04:38:37.076Z,88.80
2022-12-08T04:41:04.827Z,88.87
2022-12-08T04:43:32.553Z,88.94
2022-12-08T04:46:00.306Z,89.03
2022-12-08T04:48:28.059Z,88.85
2022-12-08T04:50:55.871Z,88.44
2022-12-08T04:53:23.621Z,88.40
2022-12-08T04:55:51.328Z,88.30
2022-12-08T04:58:19.884Z,88.53
2022-12-08T05:00:47.899Z,88.97
2022-12-08T05:03:15.771Z,89.13
2022-12-08T05:05:43.858Z,89.04
2022-12-08T05:08:11.665Z,88.60
2022-12-08T05:10:39.526Z,88.25
2022-12-08T05:13:07.529Z,88.56
2022-12-08T05:15:35.290Z,88.96
2022-12-08T05:18:05.223Z,88.86
2022-12-08T05:20:33.123Z,88.79
2022-12-08T05:23:00.938Z,88.63
2022-12-08T05:25:28.721Z,88.51
2022-12-08T05:28:17.733Z,88.60
2022-12-08T05:30:44.229Z,88.92
2022-12-08T05:33:11.954Z,89.14
2022-12-08T05:35:39.865Z,89.38
2022-12-08T05:38:07.630Z,89.18
2022-12-08T05:40:37.255Z,89.18
2022-12-08T05:43:05.135Z,88.78
2022-12-08T05:45:33.649Z,88.56
2022-12-08T05:48:01.983Z,88.49
2022-12-08T05:50:29.824Z,88.22
2022-12-08T05:52:57.579Z,88.12
2022-12-08T05:55:25.283Z,88.02
2022-12-08T05:57:53.014Z,87.72
2022-12-08T06:00:21.474Z,88.06
2022-12-08T06:02:49.247Z,88.29
2022-12-08T06:05:17.108Z,87.93
2022-12-08T06:07:44.951Z,88.16
2022-12-08T06:10:13.005Z,88.23
2022-12-08T06:12:40.847Z,88.18
2022-12-08T06:15:08.885Z,88.36
2022-12-08T06:17:36.673Z,88.77
2022-12-08T06:20:05.054Z,88.54
2022-12-08T06:22:33.139Z,88.44
2022-12-08T06:25:00.867Z,88.67
2022-12-08T06:27:28.586Z,88.69
2022-12-08T06:29:56.517Z,88.17
2022-12-08T06:32:27.539Z,87.96
2022-12-08T06:34:55.617Z,87.95
2022-12-08T06:37:23.417Z,88.10
2022-12-08T06:39:52.062Z,88.01
2022-12-08T06:42:38.585Z,87.92
2022-12-08T06:45:06.942Z,87.73
2022-12-08T06:47:35.045Z,87.45
2022-12-08T06:50:03.724Z,87.27
2022-12-08T06:52:31.733Z,87.23
2022-12-08T06:54:59.515Z,87.33
2022-12-08T06:57:27.319Z,87.30
2022-12-08T06:59:55.254Z,87.39
2022-12-08T07:02:23.040Z,87.24
2022-12-08T07:04:51.560Z,87.20
2022-12-08T07:07:19.319Z,87.17
2022-12-08T07:09:47.117Z,87.00
2022-12-08T07:12:14.903Z,86.84
2022-12-08T07:14:42.596Z,86.92
2022-12-08T07:17:10.389Z,86.71
2022-12-08T07:19:38.167Z,86.50
2022-12-08T07:22:06.021Z,86.44
2022-12-08T07:24:33.783Z,86.69
2022-12-08T07:27:01.606Z,86.87
2022-12-08T07:29:29.373Z,86.73
2022-12-08T07:31:57.241Z,86.78
2022-12-08T07:34:27.179Z,86.79
2022-12-08T07:36:54.979Z,86.75
2022-12-08T07:39:22.787Z,86.66
2022-12-08T07:41:50.723Z,86.72
2022-12-08T07:44:18.437Z,86.89
2022-12-08T07:46:46.314Z,86.57
2022-12-08T07:49:14.182Z,86.25
2022-12-08T07:51:41.940Z,86.42
2022-12-08T07:54:12.889Z,86.45
2022-12-08T07:56:40.666Z,86.78
2022-12-08T07:59:08.437Z,86.79
2022-12-08T08:01:36.406Z,86.59
2022-12-08T08:04:05.355Z,86.26
2022-12-08T08:06:34.844Z,86.37
2022-12-08T08:09:02.605Z,86.48
2022-12-08T08:11:30.439Z,86.29
2022-12-08T08:13:58.276Z,85.99
2022-12-08T08:16:26.164Z,86.11
2022-12-08T08:18:54.103Z,85.86
2022-12-08T08:21:45.011Z,86.12
2022-12-08T08:24:09.968Z,86.14
2022-12-08T08:26:37.757Z,85.94
2022-12-08T08:29:05.562Z,85.86
2022-12-08T08:31:33.437Z,85.61
2022-12-08T08:34:06.294Z,85.76
2022-12-08T08:36:34.292Z,86.12
2022-12-08T08:39:02.506Z,86.32
2022-12-08T08:41:30.287Z,86.13
2022-12-08T08:43:57.945Z,85.99
2022-12-08T08:46:25.825Z,85.98
2022-12-08T08:48:53.692Z,85.81
2022-12-08T08:51:21.554Z,86.16
2022-12-08T08:53:49.483Z,86.25
2022-12-08T08:56:19.392Z,85.88
2022-12-08T08:58:49.047Z,85.70
2022-12-08T09:01:17.789Z,85.62
2022-12-08T09:03:45.881Z,85.71
2022-12-08T09:06:14.050Z,86.02
2022-12-08T09:08:42.252Z,86.09
2022-12-08T09:11:10.459Z,86.35
2022-12-08T09:13:38.303Z,86.30
2022-12-08T09:16:07.770Z,86.49
2022-12-08T09:18:35.710Z,86.21
2022-12-08T09:21:04.740Z,86.08
2022-12-08T09:23:35.571Z,86.18
2022-12-08T09:26:05.186Z,86.11
2022-12-08T09:28:33.335Z,86.22
2022-12-08T09:31:01.164Z,85.68
2022-12-08T09:33:29.085Z,85.84
2022-12-08T09:35:56.949Z,86.37
2022-12-08T09:38:24.740Z,86.32
2022-12-08T09:40:53.658Z,86.66
2022-12-08T09:43:33.816Z,86.66
2022-12-08T09:46:04.972Z,86.82
2022-12-08T10:06:39.392Z,86.84
2022-12-08T10:09:25.699Z,87.34
2022-12-08T10:12:00.308Z,87.12
2022-12-08T10:14:30.982Z,87.35
2022-12-08T10:17:02.398Z,87.49
2022-12-08T10:19:31.353Z,87.67
2022-12-08T10:21:59.842Z,87.36
2022-12-08T10:24:37.437Z,86.97
2022-12-08T10:27:05.609Z,86.64
2022-12-08T10:29:33.581Z,86.66
2022-12-08T10:32:01.704Z,86.47
2022-12-08T10:34:29.614Z,86.95
2022-12-08T10:36:58.608Z,87.25
2022-12-08T10:39:30.555Z,87.51
2022-12-08T10:42:00.790Z,87.70
2022-12-08T10:44:28.932Z,87.51
2022-12-08T10:46:56.806Z,87.02
2022-12-08T10:49:32.318Z,86.59
2022-12-08T10:52:00.130Z,86.72
2022-12-08T10:54:36.970Z,86.61
2022-12-08T10:57:04.806Z,86.51
2022-12-08T10:59:33.707Z,86.63
2022-12-08T11:02:01.657Z,86.83
2022-12-08T11:04:38.584Z,86.94
2022-12-08T11:07:06.703Z,87.42
2022-12-08T11:09:34.411Z,87.46
2022-12-08T11:12:15.601Z,87.43
2022-12-08T11:14:43.228Z,87.38
2022-12-08T11:17:17.165Z,87.29
2022-12-08T11:20:06.713Z,87.29
2022-12-08T11:22:38.598Z,87.26
2022-12-08T11:25:12.273Z,87.12
2022-12-08T11:27:44.649Z,87.36
2022-12-08T11:30:23.075Z,87.48
2022-12-08T11:32:59.802Z,87.30
2022-12-08T11:35:30.870Z,87.23
2022-12-08T11:38:20.434Z,87.31
2022-12-08T11:41:16.521Z,87.50
2022-12-08T11:43:44.489Z,87.48
2022-12-08T11:46:32.654Z,87.64
2022-12-08T11:49:07.222Z,87.67
2022-12-08T11:51:42.312Z,87.45
2022-12-08T11:54:28.834Z,87.76
2022-12-08T11:56:57.731Z,87.87
2022-12-08T11:59:25.607Z,87.75
2022-12-08T12:01:53.368Z,87.81
2022-12-08T12:04:30.349Z,87.69
2022-12-08T12:07:07.108Z,87.71
2022-12-08T12:09:34.778Z,87.73
2022-12-08T12:12:15.840Z,87.90
2022-12-08T12:14:55.835Z,87.95
2022-12-08T12:17:39.270Z,88.03
2022-12-08T12:20:15.655Z,88.03
2022-12-08T12:22:45.107Z,88.13
2022-12-08T12:25:18.203Z,87.91
2022-12-08T12:27:46.738Z,87.64
2022-12-08T12:30:25.501Z,87.67
2022-12-08T12:32:58.442Z,87.56
2022-12-08T12:35:30.958Z,87.71
2022-12-08T12:38:01.941Z,88.05
2022-12-08T12:40:35.893Z,88.08
2022-12-08T12:43:03.743Z,88.25
2022-12-08T12:45:33.134Z,88.43
2022-12-08T12:48:00.904Z,88.54
2022-12-08T12:50:34.666Z,88.53
2022-12-08T12:53:02.506Z,88.55
2022-12-08T12:55:50.239Z,88.63
2022-12-08T12:58:30.274Z,88.46
2022-12-08T13:01:10.186Z,88.45
2022-12-08T13:03:39.755Z,88.33
2022-12-08T13:06:14.133Z,88.50
2022-12-08T13:08:56.287Z,88.80
2022-12-08T13:11:24.257Z,88.44
2022-12-08T13:13:56.535Z,88.26
2022-12-08T13:16:26.441Z,88.47
2022-12-08T13:18:58.675Z,88.79
2022-12-08T13:21:32.090Z,89.00
2022-12-08T13:24:35.765Z,89.17
2022-12-08T13:27:03.487Z,89.07
2022-12-08T13:29:32.190Z,89.27
2022-12-08T13:32:02.101Z,89.34
2022-12-08T13:34:48.514Z,89.33
2022-12-08T13:37:22.306Z,89.12
2022-12-08T13:39:53.696Z,89.12
2022-12-08T13:42:27.562Z,89.31
2022-12-08T13:45:24.173Z,89.35
2022-12-08T13:48:27.941Z,89.22
2022-12-08T13:57:09.950Z,89.43
2022-12-08T13:59:46.399Z,89.33
2022-12-08T14:02:20.642Z,89.18
2022-12-08T14:07:38.737Z,89.32
2022-12-08T14:10:08.749Z,89.54
2022-12-08T14:12:36.784Z,89.70
2022-12-08T14:15:06.382Z,89.80
2022-12-08T14:17:34.137Z,89.73
2022-12-08T14:20:20.553Z,89.63
2022-12-08T14:22:48.391Z,89.61
2022-12-08T14:25:16.954Z,89.94
2022-12-08T14:27:45.290Z,90.06
2022-12-08T14:30:16.181Z,90.12
2022-12-08T14:32:46.866Z,90.03
2022-12-08T14:35:34.364Z,89.64
2022-12-08T14:38:04.008Z,89.41
2022-12-08T14:40:39.441Z,89.39
2022-12-08T14:43:10.311Z,89.34
2022-12-08T14:45:41.442Z,89.30
2022-12-08T14:48:25.641Z,89.18
2022-12-08T14:50:56.379Z,89.47
2022-12-08T14:53:24.827Z,89.35
2022-12-08T14:55:52.616Z,89.43
2022-12-08T14:58:29.021Z,89.46
2022-12-08T15:00:58.579Z,89.36
2022-12-08T15:03:27.904Z,89.36
2022-12-08T15:05:57.643Z,89.04
2022-12-08T15:08:25.771Z,89.38
2022-12-08T15:11:14.663Z,89.56
2022-12-08T15:13:46.508Z,89.30
2022-12-08T15:16:34.320Z,89.22
2022-12-08T15:19:16.860Z,89.44
2022-12-08T15:21:46.104Z,89.71
2022-12-08T15:24:14.919Z,89.82
2022-12-08T15:26:47.392Z,89.81
2022-12-08T15:29:23.010Z,89.44
2022-12-08T15:31:52.628Z,89.56
2022-12-08T15:34:22.943Z,89.70
2022-12-08T15:36:52.279Z,89.58
2022-12-08T15:39:33.150Z,89.44
2022-12-08T15:42:01.943Z,89.30
2022-12-08T15:44:32.498Z,89.24
2022-12-08T15:47:00.371Z,89.13
2022-12-08T15:49:28.342Z,89.25
2022-12-08T15:52:06.511Z,89.54
2022-12-08T15:54:38.982Z,89.65
2022-12-08T15:57:48.801Z,89.69
2022-12-08T15:59:55.431Z,89.83
2022-12-08T16:02:25.150Z,89.67
2022-12-08T16:07:41.205Z,89.21
2022-12-08T16:10:20.024Z,88.84
2022-12-08T16:13:55.703Z,89.13
2022-12-08T16:16:00.396Z,89.15
2022-12-08T16:18:31.567Z,88.90
2022-12-08T16:23:47.328Z,89.38
2022-12-08T16:26:36.014Z,89.37
2022-12-08T16:29:05.202Z,89.02
2022-12-08T16:31:33.180Z,89.03
2022-12-08T16:34:01.151Z,88.92
2022-12-08T16:36:30.912Z,89.04
2022-12-08T16:38:58.683Z,89.07
2022-12-08T16:41:45.249Z,88.89
2022-12-08T16:44:13.311Z,88.75
2022-12-08T16:46:41.315Z,88.87
2022-12-08T16:49:09.844Z,88.90
2022-12-08T16:51:37.757Z,88.93
2022-12-08T16:54:05.488Z,88.94
2022-12-08T16:56:33.828Z,88.64
2022-12-08T16:59:02.466Z,88.55
2022-12-08T17:01:30.505Z,88.53
2022-12-08T17:04:29.898Z,88.55
2022-12-08T17:06:46.243Z,88.44
2022-12-08T17:09:14.036Z,88.27
2022-12-08T17:11:43.660Z,88.20
2022-12-08T17:14:13.349Z,88.53
2022-12-08T17:16:41.165Z,88.61
2022-12-08T17:19:09.617Z,88.68
2022-12-08T17:21:37.485Z,88.76
2022-12-08T17:24:05.492Z,88.88
2022-12-08T17:26:33.850Z,89.14
2022-12-08T17:29:02.559Z,89.14
2022-12-08T17:31:31.788Z,89.22
2022-12-08T17:34:01.048Z,89.27
2022-12-08T17:36:28.780Z,89.42
2022-12-08T17:38:57.153Z,89.40
2022-12-08T17:41:24.952Z,89.31
2022-12-08T17:43:52.708Z,89.14
2022-12-08T17:46:21.080Z,89.11
2022-12-08T17:48:49.108Z,88.92
2022-12-08T17:51:16.952Z,88.81
2022-12-08T17:53:44.777Z,88.75
2022-12-08T17:56:14.690Z,88.80
2022-12-08T17:58:42.499Z,88.78
2022-12-08T18:01:10.879Z,88.79
2022-12-08T18:03:39.155Z,88.93
2022-12-08T18:06:10.694Z,88.61
2022-12-08T18:08:38.741Z,88.64
2022-12-08T18:11:11.741Z,88.87
2022-12-08T18:13:39.880Z,88.64
2022-12-08T18:16:07.830Z,88.59
2022-12-08T18:18:35.559Z,88.94
2022-12-08T18:21:03.749Z,88.91
2022-12-08T18:23:31.727Z,88.85
2022-12-08T18:25:59.475Z,88.94
2022-12-08T18:28:27.244Z,89.38
2022-12-08T18:30:55.002Z,89.51
2022-12-08T18:33:22.865Z,89.37
2022-12-08T18:35:50.850Z,89.67
2022-12-08T18:38:18.603Z,89.82
2022-12-08T18:40:46.317Z,89.96
2022-12-08T18:43:13.979Z,90.01
2022-12-08T18:45:42.533Z,90.17
2022-12-08T18:48:10.324Z,90.19
